sensor_id;sensor_type;location;lat;lon;timestamp;temperature;humidity
19152;DHT22;9708;53.114;9.388;2023-10-19T00:02:05;9.00;99.90
19152;DHT22;9708;53.114;9.388;2023-10-19T00:04:34;9.00;99.90
19152;DHT22;9708;53.114;9.388;2023-10-19T00:07:01;8.90;99.90
19152;DHT22;9708;53.114;9.388;2023-10-19T00:09:30;9.00;99.90
19152;DHT22;9708;53.114;9.388;2023-10-19T00:12:03;9.00;99.90
19152;DHT22;9708;53.114;9.388;2023-10-19T00:14:31;9.10;99.90
19152;DHT22;9708;53.114;9.388;2023-10-19T00:16:58;9.00;99.90
19152;DHT22;9708;53.114;9.388;2023-10-19T00:19:32;9.00;99.90
19152;DHT22;9708;53.114;9.388;2023-10-19T00:22:05;8.90;99.90
19152;DHT22;9708;53.114;9.388;2023-10-19T00:24:35;9.00;99.90
19152;DHT22;9708;53.114;9.388;2023-10-19T00:27:01;9.00;99.90
19152;DHT22;9708;53.114;9.388;2023-10-19T00:29:31;9.00;99.90
19152;DHT22;9708;53.114;9.388;2023-10-19T00:32:05;8.90;99.90
19152;DHT22;9708;53.114;9.388;2023-10-19T00:34:39;8.80;99.90
19152;DHT22;9708;53.114;9.388;2023-10-19T00:37:08;8.80;99.90
19152;DHT22;9708;53.114;9.388;2023-10-19T00:39:36;8.80;99.90
19152;DHT22;9708;53.114;9.388;2023-10-19T00:42:09;8.80;99.90
19152;DHT22;9708;53.114;9.388;2023-10-19T00:44:36;8.80;99.90
19152;DHT22;9708;53.114;9.388;2023-10-19T00:47:07;8.80;99.90
19152;DHT22;9708;53.114;9.388;2023-10-19T00:49:38;8.80;99.90
19152;DHT22;9708;53.114;9.388;2023-10-19T00:52:07;8.80;99.90
19152;DHT22;9708;53.114;9.388;2023-10-19T00:54:39;8.80;99.90
19152;DHT22;9708;53.114;9.388;2023-10-19T00:57:12;8.70;99.90
19152;DHT22;9708;53.114;9.388;2023-10-19T00:59:40;8.70;99.90
19152;DHT22;9708;53.114;9.388;2023-10-19T01:02:13;8.80;99.90
19152;DHT22;9708;53.114;9.388;2023-10-19T01:04:46;8.80;99.90
19152;DHT22;9708;53.114;9.388;2023-10-19T01:07:17;8.60;99.90
19152;DHT22;9708;53.114;9.388;2023-10-19T01:09:48;8.60;99.90
19152;DHT22;9708;53.114;9.388;2023-10-19T01:12:19;8.50;99.90
19152;DHT22;9708;53.114;9.388;2023-10-19T01:15:03;8.60;99.90
19152;DHT22;9708;53.114;9.388;2023-10-19T01:17:31;8.50;99.90
19152;DHT22;9708;53.114;9.388;2023-10-19T01:20:03;8.50;99.90
19152;DHT22;9708;53.114;9.388;2023-10-19T01:22:50;8.50;99.90
19152;DHT22;9708;53.114;9.388;2023-10-19T01:25:20;8.50;99.90
19152;DHT22;9708;53.114;9.388;2023-10-19T01:27:52;8.50;99.90
19152;DHT22;9708;53.114;9.388;2023-10-19T01:30:23;8.40;99.90
19152;DHT22;9708;53.114;9.388;2023-10-19T01:32:52;8.30;99.90
19152;DHT22;9708;53.114;9.388;2023-10-19T01:35:19;8.30;99.90
19152;DHT22;9708;53.114;9.388;2023-10-19T01:37:47;8.30;99.90
19152;DHT22;9708;53.114;9.388;2023-10-19T01:40:13;8.20;99.90
19152;DHT22;9708;53.114;9.388;2023-10-19T01:42:46;8.20;99.90
19152;DHT22;9708;53.114;9.388;2023-10-19T01:45:11;8.20;99.90
19152;DHT22;9708;53.114;9.388;2023-10-19T01:47:39;8.20;99.90
19152;DHT22;9708;53.114;9.388;2023-10-19T01:50:07;8.20;99.90
19152;DHT22;9708;53.114;9.388;2023-10-19T01:52:46;8.20;99.90
19152;DHT22;9708;53.114;9.388;2023-10-19T01:55:13;8.00;99.90
19152;DHT22;9708;53.114;9.388;2023-10-19T01:57:46;8.00;99.90
19152;DHT22;9708;53.114;9.388;2023-10-19T02:00:12;7.90;99.90
19152;DHT22;9708;53.114;9.388;2023-10-19T02:02:43;7.90;99.90
19152;DHT22;9708;53.114;9.388;2023-10-19T02:05:09;7.80;99.90
19152;DHT22;9708;53.114;9.388;2023-10-19T02:07:41;7.90;99.90
19152;DHT22;9708;53.114;9.388;2023-10-19T02:10:10;7.80;99.90
19152;DHT22;9708;53.114;9.388;2023-10-19T02:12:36;7.90;99.90
19152;DHT22;9708;53.114;9.388;2023-10-19T02:15:07;7.90;99.90
19152;DHT22;9708;53.114;9.388;2023-10-19T02:17:33;7.80;99.90
19152;DHT22;9708;53.114;9.388;2023-10-19T02:20:00;7.80;99.90
19152;DHT22;9708;53.114;9.388;2023-10-19T02:22:26;7.80;99.90
19152;DHT22;9708;53.114;9.388;2023-10-19T02:24:53;7.80;99.90
19152;DHT22;9708;53.114;9.388;2023-10-19T02:27:21;7.80;99.90
19152;DHT22;9708;53.114;9.388;2023-10-19T02:29:47;7.70;99.90
19152;DHT22;9708;53.114;9.388;2023-10-19T02:32:13;7.70;99.90
19152;DHT22;9708;53.114;9.388;2023-10-19T02:34:43;7.70;99.90
19152;DHT22;9708;53.114;9.388;2023-10-19T02:37:09;7.70;99.90
19152;DHT22;9708;53.114;9.388;2023-10-19T02:39:36;7.70;99.90
19152;DHT22;9708;53.114;9.388;2023-10-19T02:42:01;7.60;99.90
19152;DHT22;9708;53.114;9.388;2023-10-19T02:44:30;7.60;99.90
19152;DHT22;9708;53.114;9.388;2023-10-19T02:46:56;7.70;99.90
19152;DHT22;9708;53.114;9.388;2023-10-19T02:49:25;7.60;99.90
19152;DHT22;9708;53.114;9.388;2023-10-19T02:51:52;7.60;99.90
19152;DHT22;9708;53.114;9.388;2023-10-19T02:54:21;7.70;99.90
19152;DHT22;9708;53.114;9.388;2023-10-19T02:56:49;7.60;99.90
19152;DHT22;9708;53.114;9.388;2023-10-19T02:59:18;7.70;99.90
19152;DHT22;9708;53.114;9.388;2023-10-19T03:01:49;7.60;99.90
19152;DHT22;9708;53.114;9.388;2023-10-19T03:04:17;7.70;99.90
19152;DHT22;9708;53.114;9.388;2023-10-19T03:06:44;7.60;99.90
19152;DHT22;9708;53.114;9.388;2023-10-19T03:09:11;7.60;99.90
19152;DHT22;9708;53.114;9.388;2023-10-19T03:11:41;7.60;99.90
19152;DHT22;9708;53.114;9.388;2023-10-19T03:14:07;7.60;99.90
19152;DHT22;9708;53.114;9.388;2023-10-19T03:16:35;7.50;99.90
19152;DHT22;9708;53.114;9.388;2023-10-19T03:19:03;7.50;99.90
19152;DHT22;9708;53.114;9.388;2023-10-19T03:21:29;7.50;99.90
19152;DHT22;9708;53.114;9.388;2023-10-19T03:23:59;7.60;99.90
19152;DHT22;9708;53.114;9.388;2023-10-19T03:26:27;7.60;99.90
19152;DHT22;9708;53.114;9.388;2023-10-19T03:29:02;7.60;99.90
19152;DHT22;9708;53.114;9.388;2023-10-19T03:31:33;7.60;99.90
19152;DHT22;9708;53.114;9.388;2023-10-19T03:34:04;7.50;99.90
19152;DHT22;9708;53.114;9.388;2023-10-19T03:36:31;7.60;99.90
19152;DHT22;9708;53.114;9.388;2023-10-19T03:38:59;7.50;99.90
19152;DHT22;9708;53.114;9.388;2023-10-19T03:41:37;7.50;99.90
19152;DHT22;9708;53.114;9.388;2023-10-19T03:44:05;7.50;99.90
19152;DHT22;9708;53.114;9.388;2023-10-19T03:46:38;7.50;99.90
19152;DHT22;9708;53.114;9.388;2023-10-19T03:49:19;7.50;99.90
19152;DHT22;9708;53.114;9.388;2023-10-19T03:51:47;7.50;99.90
19152;DHT22;9708;53.114;9.388;2023-10-19T03:54:25;7.50;99.90
19152;DHT22;9708;53.114;9.388;2023-10-19T03:56:53;7.60;99.90
19152;DHT22;9708;53.114;9.388;2023-10-19T03:59:21;7.60;99.90
19152;DHT22;9708;53.114;9.388;2023-10-19T04:01:48;7.50;99.90
19152;DHT22;9708;53.114;9.388;2023-10-19T04:04:15;7.50;99.90
19152;DHT22;9708;53.114;9.388;2023-10-19T04:06:44;7.50;99.90
19152;DHT22;9708;53.114;9.388;2023-10-19T04:09:14;7.60;99.90
19152;DHT22;9708;53.114;9.388;2023-10-19T04:11:42;7.50;99.90
19152;DHT22;9708;53.114;9.388;2023-10-19T04:14:14;7.50;99.90
19152;DHT22;9708;53.114;9.388;2023-10-19T04:16:42;7.60;99.90
19152;DHT22;9708;53.114;9.388;2023-10-19T04:19:09;7.50;99.90
19152;DHT22;9708;53.114;9.388;2023-10-19T04:21:36;7.50;99.90
19152;DHT22;9708;53.114;9.388;2023-10-19T04:24:06;7.50;99.90
19152;DHT22;9708;53.114;9.388;2023-10-19T04:26:34;7.50;99.90
19152;DHT22;9708;53.114;9.388;2023-10-19T04:29:02;7.50;99.90
19152;DHT22;9708;53.114;9.388;2023-10-19T04:31:35;7.50;99.90
19152;DHT22;9708;53.114;9.388;2023-10-19T04:34:03;7.50;99.90
19152;DHT22;9708;53.114;9.388;2023-10-19T04:36:32;7.40;99.90
19152;DHT22;9708;53.114;9.388;2023-10-19T04:39:00;7.40;99.90
19152;DHT22;9708;53.114;9.388;2023-10-19T04:41:29;7.60;99.90
19152;DHT22;9708;53.114;9.388;2023-10-19T04:43:56;7.50;99.90
19152;DHT22;9708;53.114;9.388;2023-10-19T04:46:24;7.50;99.90
19152;DHT22;9708;53.114;9.388;2023-10-19T04:48:50;7.60;99.90
19152;DHT22;9708;53.114;9.388;2023-10-19T04:51:18;7.50;99.90
19152;DHT22;9708;53.114;9.388;2023-10-19T04:53:45;7.50;99.90
19152;DHT22;9708;53.114;9.388;2023-10-19T04:56:12;7.40;99.90
19152;DHT22;9708;53.114;9.388;2023-10-19T04:58:41;7.50;99.90
19152;DHT22;9708;53.114;9.388;2023-10-19T05:01:07;7.50;99.90
19152;DHT22;9708;53.114;9.388;2023-10-19T05:03:37;7.50;99.90
19152;DHT22;9708;53.114;9.388;2023-10-19T05:06:04;7.50;99.90
19152;DHT22;9708;53.114;9.388;2023-10-19T05:08:30;7.60;99.90
19152;DHT22;9708;53.114;9.388;2023-10-19T05:10:58;7.50;99.90
19152;DHT22;9708;53.114;9.388;2023-10-19T05:13:26;7.50;99.90
19152;DHT22;9708;53.114;9.388;2023-10-19T05:15:54;7.50;99.90
19152;DHT22;9708;53.114;9.388;2023-10-19T05:18:22;7.50;99.90
19152;DHT22;9708;53.114;9.388;2023-10-19T05:20:49;7.50;99.90
19152;DHT22;9708;53.114;9.388;2023-10-19T05:23:21;7.50;99.90
19152;DHT22;9708;53.114;9.388;2023-10-19T05:25:48;7.50;99.90
19152;DHT22;9708;53.114;9.388;2023-10-19T05:28:14;7.50;99.90
19152;DHT22;9708;53.114;9.388;2023-10-19T05:30:41;7.60;99.90
19152;DHT22;9708;53.114;9.388;2023-10-19T05:33:09;7.50;99.90
19152;DHT22;9708;53.114;9.388;2023-10-19T05:35:37;7.50;99.90
19152;DHT22;9708;53.114;9.388;2023-10-19T05:38:06;7.50;99.90
19152;DHT22;9708;53.114;9.388;2023-10-19T05:40:32;7.50;99.90
19152;DHT22;9708;53.114;9.388;2023-10-19T05:43:01;7.60;99.90
19152;DHT22;9708;53.114;9.388;2023-10-19T05:45:28;7.60;99.90
19152;DHT22;9708;53.114;9.388;2023-10-19T05:47:55;7.50;99.90
19152;DHT22;9708;53.114;9.388;2023-10-19T05:50:25;7.60;99.90
19152;DHT22;9708;53.114;9.388;2023-10-19T05:52:53;7.60;99.90
19152;DHT22;9708;53.114;9.388;2023-10-19T05:55:20;7.50;99.90
19152;DHT22;9708;53.114;9.388;2023-10-19T05:57:47;7.50;99.90
19152;DHT22;9708;53.114;9.388;2023-10-19T06:00:15;7.50;99.90
19152;DHT22;9708;53.114;9.388;2023-10-19T06:02:44;7.50;99.90
19152;DHT22;9708;53.114;9.388;2023-10-19T06:05:12;7.50;99.90
19152;DHT22;9708;53.114;9.388;2023-10-19T06:07:42;7.50;99.90
19152;DHT22;9708;53.114;9.388;2023-10-19T06:10:11;7.40;99.90
19152;DHT22;9708;53.114;9.388;2023-10-19T06:12:41;7.40;99.90
19152;DHT22;9708;53.114;9.388;2023-10-19T06:15:09;7.60;99.90
19152;DHT22;9708;53.114;9.388;2023-10-19T06:17:36;7.50;99.90
19152;DHT22;9708;53.114;9.388;2023-10-19T06:20:04;7.50;99.90
19152;DHT22;9708;53.114;9.388;2023-10-19T06:22:31;7.50;99.90
19152;DHT22;9708;53.114;9.388;2023-10-19T06:24:59;7.50;99.90
19152;DHT22;9708;53.114;9.388;2023-10-19T06:27:25;7.50;99.90
19152;DHT22;9708;53.114;9.388;2023-10-19T06:29:52;7.40;99.90
19152;DHT22;9708;53.114;9.388;2023-10-19T06:32:19;7.50;99.90
19152;DHT22;9708;53.114;9.388;2023-10-19T06:34:46;7.50;99.90
19152;DHT22;9708;53.114;9.388;2023-10-19T06:37:13;7.40;99.90
19152;DHT22;9708;53.114;9.388;2023-10-19T06:39:40;7.50;99.90
19152;DHT22;9708;53.114;9.388;2023-10-19T06:42:09;7.40;99.90
19152;DHT22;9708;53.114;9.388;2023-10-19T06:44:40;7.40;99.90
19152;DHT22;9708;53.114;9.388;2023-10-19T06:47:08;7.40;99.90
19152;DHT22;9708;53.114;9.388;2023-10-19T06:49:35;7.40;99.90
19152;DHT22;9708;53.114;9.388;2023-10-19T06:52:03;7.40;99.90
19152;DHT22;9708;53.114;9.388;2023-10-19T06:54:31;7.40;99.90
19152;DHT22;9708;53.114;9.388;2023-10-19T06:56:58;7.40;99.90
19152;DHT22;9708;53.114;9.388;2023-10-19T06:59:26;7.50;99.90
19152;DHT22;9708;53.114;9.388;2023-10-19T07:01:54;7.50;99.90
19152;DHT22;9708;53.114;9.388;2023-10-19T07:04:21;7.50;99.90
19152;DHT22;9708;53.114;9.388;2023-10-19T07:06:48;7.60;99.90
19152;DHT22;9708;53.114;9.388;2023-10-19T07:09:16;7.60;99.90
19152;DHT22;9708;53.114;9.388;2023-10-19T07:11:44;7.50;99.90
19152;DHT22;9708;53.114;9.388;2023-10-19T07:14:11;7.50;99.90
19152;DHT22;9708;53.114;9.388;2023-10-19T07:16:40;7.60;99.90
19152;DHT22;9708;53.114;9.388;2023-10-19T07:19:07;7.60;99.90
19152;DHT22;9708;53.114;9.388;2023-10-19T07:21:34;7.60;99.90
19152;DHT22;9708;53.114;9.388;2023-10-19T07:24:03;7.60;99.90
19152;DHT22;9708;53.114;9.388;2023-10-19T07:26:34;7.60;99.90
19152;DHT22;9708;53.114;9.388;2023-10-19T07:29:08;7.60;99.90
19152;DHT22;9708;53.114;9.388;2023-10-19T07:31:35;7.60;99.90
19152;DHT22;9708;53.114;9.388;2023-10-19T07:34:04;7.60;99.90
19152;DHT22;9708;53.114;9.388;2023-10-19T07:36:33;7.60;99.90
19152;DHT22;9708;53.114;9.388;2023-10-19T07:39:02;7.60;99.90
19152;DHT22;9708;53.114;9.388;2023-10-19T07:41:29;7.50;99.90
19152;DHT22;9708;53.114;9.388;2023-10-19T07:44:01;7.60;99.90
19152;DHT22;9708;53.114;9.388;2023-10-19T07:46:28;7.60;99.90
19152;DHT22;9708;53.114;9.388;2023-10-19T07:48:57;7.60;99.90
19152;DHT22;9708;53.114;9.388;2023-10-19T07:51:27;7.60;99.90
19152;DHT22;9708;53.114;9.388;2023-10-19T07:53:55;7.60;99.90
19152;DHT22;9708;53.114;9.388;2023-10-19T07:56:22;7.50;99.90
19152;DHT22;9708;53.114;9.388;2023-10-19T07:58:49;7.60;99.90
19152;DHT22;9708;53.114;9.388;2023-10-19T08:01:15;7.60;99.90
19152;DHT22;9708;53.114;9.388;2023-10-19T08:03:42;7.50;99.90
19152;DHT22;9708;53.114;9.388;2023-10-19T08:06:09;7.60;99.90
19152;DHT22;9708;53.114;9.388;2023-10-19T08:08:37;7.60;99.90
19152;DHT22;9708;53.114;9.388;2023-10-19T08:11:04;7.60;99.90
19152;DHT22;9708;53.114;9.388;2023-10-19T08:13:31;7.60;99.90
19152;DHT22;9708;53.114;9.388;2023-10-19T08:15:58;7.60;99.90
19152;DHT22;9708;53.114;9.388;2023-10-19T08:18:25;7.70;99.90
19152;DHT22;9708;53.114;9.388;2023-10-19T08:20:52;7.70;99.90
19152;DHT22;9708;53.114;9.388;2023-10-19T08:23:19;7.70;99.90
19152;DHT22;9708;53.114;9.388;2023-10-19T08:25:50;7.70;99.90
19152;DHT22;9708;53.114;9.388;2023-10-19T08:28:17;7.80;99.90
19152;DHT22;9708;53.114;9.388;2023-10-19T08:30:45;7.80;99.90
19152;DHT22;9708;53.114;9.388;2023-10-19T08:33:22;7.80;99.90
19152;DHT22;9708;53.114;9.388;2023-10-19T08:35:51;7.90;99.90
19152;DHT22;9708;53.114;9.388;2023-10-19T08:38:19;7.90;99.90
19152;DHT22;9708;53.114;9.388;2023-10-19T08:40:47;7.80;99.90
19152;DHT22;9708;53.114;9.388;2023-10-19T08:43:17;7.90;99.90
19152;DHT22;9708;53.114;9.388;2023-10-19T08:45:45;7.90;99.90
19152;DHT22;9708;53.114;9.388;2023-10-19T08:48:12;7.90;99.90
19152;DHT22;9708;53.114;9.388;2023-10-19T08:50:39;7.90;99.90
19152;DHT22;9708;53.114;9.388;2023-10-19T08:53:07;7.90;99.90
19152;DHT22;9708;53.114;9.388;2023-10-19T08:55:35;7.90;99.90
19152;DHT22;9708;53.114;9.388;2023-10-19T08:58:02;7.90;99.90
19152;DHT22;9708;53.114;9.388;2023-10-19T09:03:03;7.90;99.90
19152;DHT22;9708;53.114;9.388;2023-10-19T09:05:30;8.00;99.90
19152;DHT22;9708;53.114;9.388;2023-10-19T09:07:57;8.00;99.90
19152;DHT22;9708;53.114;9.388;2023-10-19T09:10:27;7.90;99.90
19152;DHT22;9708;53.114;9.388;2023-10-19T09:12:59;8.00;99.90
19152;DHT22;9708;53.114;9.388;2023-10-19T09:15:27;7.90;99.90
19152;DHT22;9708;53.114;9.388;2023-10-19T09:17:54;7.80;99.90
19152;DHT22;9708;53.114;9.388;2023-10-19T09:20:22;7.80;99.90
19152;DHT22;9708;53.114;9.388;2023-10-19T09:22:53;7.90;99.90
19152;DHT22;9708;53.114;9.388;2023-10-19T09:25:22;8.00;99.90
19152;DHT22;9708;53.114;9.388;2023-10-19T09:27:49;8.00;99.90
19152;DHT22;9708;53.114;9.388;2023-10-19T09:30:17;7.90;99.90
19152;DHT22;9708;53.114;9.388;2023-10-19T09:32:46;7.90;99.90
19152;DHT22;9708;53.114;9.388;2023-10-19T09:35:14;8.00;99.90
19152;DHT22;9708;53.114;9.388;2023-10-19T09:37:43;8.00;99.90
19152;DHT22;9708;53.114;9.388;2023-10-19T09:40:10;8.10;99.90
19152;DHT22;9708;53.114;9.388;2023-10-19T09:42:40;8.10;99.90
19152;DHT22;9708;53.114;9.388;2023-10-19T09:45:12;8.20;99.90
19152;DHT22;9708;53.114;9.388;2023-10-19T09:47:41;8.10;99.90
19152;DHT22;9708;53.114;9.388;2023-10-19T09:50:10;8.10;99.90
19152;DHT22;9708;53.114;9.388;2023-10-19T09:52:39;8.10;99.90
19152;DHT22;9708;53.114;9.388;2023-10-19T09:55:12;8.20;99.90
19152;DHT22;9708;53.114;9.388;2023-10-19T09:57:46;8.30;99.90
19152;DHT22;9708;53.114;9.388;2023-10-19T10:00:17;8.30;99.90
19152;DHT22;9708;53.114;9.388;2023-10-19T10:02:49;8.20;99.90
19152;DHT22;9708;53.114;9.388;2023-10-19T10:05:44;8.20;99.90
19152;DHT22;9708;53.114;9.388;2023-10-19T10:08:30;8.10;99.90
19152;DHT22;9708;53.114;9.388;2023-10-19T10:11:17;8.30;99.90
19152;DHT22;9708;53.114;9.388;2023-10-19T10:13:44;8.20;99.90
19152;DHT22;9708;53.114;9.388;2023-10-19T10:16:13;8.20;99.90
19152;DHT22;9708;53.114;9.388;2023-10-19T10:18:41;8.10;99.90
19152;DHT22;9708;53.114;9.388;2023-10-19T10:21:11;8.20;99.90
19152;DHT22;9708;53.114;9.388;2023-10-19T10:23:43;8.30;99.90
19152;DHT22;9708;53.114;9.388;2023-10-19T10:26:13;8.30;99.90
19152;DHT22;9708;53.114;9.388;2023-10-19T10:28:40;8.40;99.90
19152;DHT22;9708;53.114;9.388;2023-10-19T10:31:12;8.40;99.90
19152;DHT22;9708;53.114;9.388;2023-10-19T10:33:44;8.30;99.90
19152;DHT22;9708;53.114;9.388;2023-10-19T10:36:12;8.30;99.90
19152;DHT22;9708;53.114;9.388;2023-10-19T10:38:39;8.30;99.90
19152;DHT22;9708;53.114;9.388;2023-10-19T10:41:06;8.30;99.90
19152;DHT22;9708;53.114;9.388;2023-10-19T10:43:52;8.30;99.90
19152;DHT22;9708;53.114;9.388;2023-10-19T10:46:21;8.40;99.90
19152;DHT22;9708;53.114;9.388;2023-10-19T10:48:48;8.40;99.90
19152;DHT22;9708;53.114;9.388;2023-10-19T10:51:16;8.40;99.90
19152;DHT22;9708;53.114;9.388;2023-10-19T10:53:43;8.40;99.90
19152;DHT22;9708;53.114;9.388;2023-10-19T10:56:12;8.40;99.90
19152;DHT22;9708;53.114;9.388;2023-10-19T10:58:39;8.40;99.90
19152;DHT22;9708;53.114;9.388;2023-10-19T11:01:07;8.40;99.90
19152;DHT22;9708;53.114;9.388;2023-10-19T11:03:36;8.50;99.90
19152;DHT22;9708;53.114;9.388;2023-10-19T11:06:06;8.50;99.90
19152;DHT22;9708;53.114;9.388;2023-10-19T11:08:34;8.40;99.90
19152;DHT22;9708;53.114;9.388;2023-10-19T11:11:03;8.50;99.90
19152;DHT22;9708;53.114;9.388;2023-10-19T11:13:31;8.50;99.90
19152;DHT22;9708;53.114;9.388;2023-10-19T11:16:03;8.40;99.90
19152;DHT22;9708;53.114;9.388;2023-10-19T11:18:34;8.60;99.90
19152;DHT22;9708;53.114;9.388;2023-10-19T11:21:10;8.60;99.90
19152;DHT22;9708;53.114;9.388;2023-10-19T11:23:38;8.40;99.90
19152;DHT22;9708;53.114;9.388;2023-10-19T11:26:06;8.30;99.90
19152;DHT22;9708;53.114;9.388;2023-10-19T11:28:33;8.40;99.90
19152;DHT22;9708;53.114;9.388;2023-10-19T11:31:12;8.40;99.90
19152;DHT22;9708;53.114;9.388;2023-10-19T11:33:41;8.50;99.90
19152;DHT22;9708;53.114;9.388;2023-10-19T11:36:08;8.60;99.90
19152;DHT22;9708;53.114;9.388;2023-10-19T11:38:39;8.50;99.90
19152;DHT22;9708;53.114;9.388;2023-10-19T11:41:06;8.50;99.90
19152;DHT22;9708;53.114;9.388;2023-10-19T11:43:33;8.50;99.90
19152;DHT22;9708;53.114;9.388;2023-10-19T11:46:01;8.50;99.90
19152;DHT22;9708;53.114;9.388;2023-10-19T11:48:30;8.70;99.90
19152;DHT22;9708;53.114;9.388;2023-10-19T11:50:58;8.70;99.90
19152;DHT22;9708;53.114;9.388;2023-10-19T11:53:25;8.60;99.90
19152;DHT22;9708;53.114;9.388;2023-10-19T11:55:51;8.40;99.90
19152;DHT22;9708;53.114;9.388;2023-10-19T11:58:18;8.50;99.90
19152;DHT22;9708;53.114;9.388;2023-10-19T12:00:45;8.60;99.90
19152;DHT22;9708;53.114;9.388;2023-10-19T12:03:12;8.50;99.90
19152;DHT22;9708;53.114;9.388;2023-10-19T12:05:39;8.60;99.90
19152;DHT22;9708;53.114;9.388;2023-10-19T12:08:09;8.60;99.90
19152;DHT22;9708;53.114;9.388;2023-10-19T12:10:36;8.60;99.90
19152;DHT22;9708;53.114;9.388;2023-10-19T12:13:04;8.80;99.90
19152;DHT22;9708;53.114;9.388;2023-10-19T12:15:33;8.60;99.90
19152;DHT22;9708;53.114;9.388;2023-10-19T12:18:00;8.60;99.90
19152;DHT22;9708;53.114;9.388;2023-10-19T12:20:27;8.60;99.90
19152;DHT22;9708;53.114;9.388;2023-10-19T12:22:56;8.60;99.90
19152;DHT22;9708;53.114;9.388;2023-10-19T12:25:25;8.40;99.90
19152;DHT22;9708;53.114;9.388;2023-10-19T12:27:58;8.40;99.90
19152;DHT22;9708;53.114;9.388;2023-10-19T12:30:25;8.40;99.90
19152;DHT22;9708;53.114;9.388;2023-10-19T12:32:59;8.30;99.90
19152;DHT22;9708;53.114;9.388;2023-10-19T12:35:26;8.40;99.90
19152;DHT22;9708;53.114;9.388;2023-10-19T12:38:07;8.40;99.90
19152;DHT22;9708;53.114;9.388;2023-10-19T12:40:42;8.50;99.90
19152;DHT22;9708;53.114;9.388;2023-10-19T12:43:10;8.50;99.90
19152;DHT22;9708;53.114;9.388;2023-10-19T12:45:38;8.40;99.90
19152;DHT22;9708;53.114;9.388;2023-10-19T12:48:05;8.40;99.90
19152;DHT22;9708;53.114;9.388;2023-10-19T12:50:34;8.50;99.90
19152;DHT22;9708;53.114;9.388;2023-10-19T12:53:02;8.40;99.90
19152;DHT22;9708;53.114;9.388;2023-10-19T12:55:28;8.50;99.90
19152;DHT22;9708;53.114;9.388;2023-10-19T12:57:57;8.30;99.90
19152;DHT22;9708;53.114;9.388;2023-10-19T13:00:31;8.30;99.90
19152;DHT22;9708;53.114;9.388;2023-10-19T13:03:01;8.40;99.90
19152;DHT22;9708;53.114;9.388;2023-10-19T13:05:32;8.30;99.90
19152;DHT22;9708;53.114;9.388;2023-10-19T13:07:59;8.30;99.90
19152;DHT22;9708;53.114;9.388;2023-10-19T13:10:29;8.30;99.90
19152;DHT22;9708;53.114;9.388;2023-10-19T13:12:59;8.30;99.90
19152;DHT22;9708;53.114;9.388;2023-10-19T13:15:29;8.30;99.90
19152;DHT22;9708;53.114;9.388;2023-10-19T13:17:57;8.40;99.90
19152;DHT22;9708;53.114;9.388;2023-10-19T13:20:25;8.40;99.90
19152;DHT22;9708;53.114;9.388;2023-10-19T13:22:52;8.50;99.90
19152;DHT22;9708;53.114;9.388;2023-10-19T13:25:21;8.60;99.90
19152;DHT22;9708;53.114;9.388;2023-10-19T13:28:06;8.60;99.90
19152;DHT22;9708;53.114;9.388;2023-10-19T13:30:38;8.50;99.90
19152;DHT22;9708;53.114;9.388;2023-10-19T13:33:06;8.50;99.90
19152;DHT22;9708;53.114;9.388;2023-10-19T13:35:35;8.50;99.90
19152;DHT22;9708;53.114;9.388;2023-10-19T13:38:02;8.50;99.90
19152;DHT22;9708;53.114;9.388;2023-10-19T13:40:29;8.40;99.90
19152;DHT22;9708;53.114;9.388;2023-10-19T13:42:56;8.40;99.90
19152;DHT22;9708;53.114;9.388;2023-10-19T13:45:25;8.30;99.90
19152;DHT22;9708;53.114;9.388;2023-10-19T13:47:52;8.40;99.90
19152;DHT22;9708;53.114;9.388;2023-10-19T13:50:21;8.30;99.90
19152;DHT22;9708;53.114;9.388;2023-10-19T13:52:49;8.30;99.90
19152;DHT22;9708;53.114;9.388;2023-10-19T13:55:17;8.30;99.90
19152;DHT22;9708;53.114;9.388;2023-10-19T13:57:46;8.40;99.90
19152;DHT22;9708;53.114;9.388;2023-10-19T14:00:14;8.30;99.90
19152;DHT22;9708;53.114;9.388;2023-10-19T14:02:50;8.30;99.90
19152;DHT22;9708;53.114;9.388;2023-10-19T14:05:18;8.30;99.90
19152;DHT22;9708;53.114;9.388;2023-10-19T14:07:45;8.40;99.90
19152;DHT22;9708;53.114;9.388;2023-10-19T14:10:13;8.30;99.90
19152;DHT22;9708;53.114;9.388;2023-10-19T14:12:40;8.30;99.90
19152;DHT22;9708;53.114;9.388;2023-10-19T14:15:12;8.20;99.90
19152;DHT22;9708;53.114;9.388;2023-10-19T14:17:39;8.20;99.90
19152;DHT22;9708;53.114;9.388;2023-10-19T14:20:08;8.20;99.90
19152;DHT22;9708;53.114;9.388;2023-10-19T14:22:39;8.20;99.90
19152;DHT22;9708;53.114;9.388;2023-10-19T14:25:07;8.20;99.90
19152;DHT22;9708;53.114;9.388;2023-10-19T14:27:38;8.10;99.90
19152;DHT22;9708;53.114;9.388;2023-10-19T14:30:06;8.10;99.90
19152;DHT22;9708;53.114;9.388;2023-10-19T14:32:33;8.10;99.90
19152;DHT22;9708;53.114;9.388;2023-10-19T14:35:00;8.20;99.90
19152;DHT22;9708;53.114;9.388;2023-10-19T14:37:30;8.30;99.90
19152;DHT22;9708;53.114;9.388;2023-10-19T14:39:57;8.20;99.90
19152;DHT22;9708;53.114;9.388;2023-10-19T14:42:24;8.20;99.90
19152;DHT22;9708;53.114;9.388;2023-10-19T14:44:51;8.20;99.90
19152;DHT22;9708;53.114;9.388;2023-10-19T14:47:17;8.10;99.90
19152;DHT22;9708;53.114;9.388;2023-10-19T14:49:44;8.20;99.90
19152;DHT22;9708;53.114;9.388;2023-10-19T14:52:12;8.20;99.90
19152;DHT22;9708;53.114;9.388;2023-10-19T14:54:40;8.20;99.90
19152;DHT22;9708;53.114;9.388;2023-10-19T14:57:07;8.20;99.90
19152;DHT22;9708;53.114;9.388;2023-10-19T14:59:34;8.20;99.90
19152;DHT22;9708;53.114;9.388;2023-10-19T15:02:01;8.30;99.90
19152;DHT22;9708;53.114;9.388;2023-10-19T15:04:32;8.20;99.90
19152;DHT22;9708;53.114;9.388;2023-10-19T15:06:59;8.10;99.90
19152;DHT22;9708;53.114;9.388;2023-10-19T15:09:26;8.10;99.90
19152;DHT22;9708;53.114;9.388;2023-10-19T15:11:55;8.10;99.90
19152;DHT22;9708;53.114;9.388;2023-10-19T15:14:22;8.10;99.90
19152;DHT22;9708;53.114;9.388;2023-10-19T15:16:48;8.10;99.90
19152;DHT22;9708;53.114;9.388;2023-10-19T15:19:15;8.10;99.90
19152;DHT22;9708;53.114;9.388;2023-10-19T15:21:44;8.10;99.90
19152;DHT22;9708;53.114;9.388;2023-10-19T15:24:11;8.10;99.90
19152;DHT22;9708;53.114;9.388;2023-10-19T15:26:38;8.10;99.90
19152;DHT22;9708;53.114;9.388;2023-10-19T15:29:06;8.10;99.90
19152;DHT22;9708;53.114;9.388;2023-10-19T15:31:33;8.10;99.90
19152;DHT22;9708;53.114;9.388;2023-10-19T15:34:00;8.10;99.90
19152;DHT22;9708;53.114;9.388;2023-10-19T15:36:27;8.10;99.90
19152;DHT22;9708;53.114;9.388;2023-10-19T15:38:53;8.20;99.90
19152;DHT22;9708;53.114;9.388;2023-10-19T15:41:20;8.10;99.90
19152;DHT22;9708;53.114;9.388;2023-10-19T15:43:47;8.20;99.90
19152;DHT22;9708;53.114;9.388;2023-10-19T15:46:15;8.20;99.90
19152;DHT22;9708;53.114;9.388;2023-10-19T15:48:42;8.20;99.90
19152;DHT22;9708;53.114;9.388;2023-10-19T15:51:09;8.20;99.90
19152;DHT22;9708;53.114;9.388;2023-10-19T15:53:36;8.10;99.90
19152;DHT22;9708;53.114;9.388;2023-10-19T15:56:03;8.20;99.90
19152;DHT22;9708;53.114;9.388;2023-10-19T15:58:31;8.30;99.90
19152;DHT22;9708;53.114;9.388;2023-10-19T16:00:57;8.20;99.90
19152;DHT22;9708;53.114;9.388;2023-10-19T16:03:25;8.20;99.90
19152;DHT22;9708;53.114;9.388;2023-10-19T16:05:52;8.30;99.90
19152;DHT22;9708;53.114;9.388;2023-10-19T16:08:19;8.20;99.90
19152;DHT22;9708;53.114;9.388;2023-10-19T16:10:46;8.20;99.90
19152;DHT22;9708;53.114;9.388;2023-10-19T16:13:12;8.30;99.90
19152;DHT22;9708;53.114;9.388;2023-10-19T16:15:39;8.20;99.90